Amelia City, Florida
Current Conditions -  °F | °C
As of 1:15 PM on Monday 22 Dec 2014 (Local Time) from KFHB Reporting Station
Broken Clouds Broken Clouds  
Wind Chill: 23°   Ceiling: 10000
Heat Index: 23°   Visibility: 10mi
Dew Point: 20°   Wind: 7mph
Humidity: 83%   Direction: 140°SE
Pressure: 29.92"   Gusts: NA
Location:  30.6056°N, 81.5268°W
Report Text: KFHB 221815Z AUTO 14006KT 10SM SCT011 SCT030 BKN100 23/20 A2992 RMK AO1 LTG DSNT SW THRU N
Loading
Personal Weather Stations






























Interactive Weather Map New forecast layout! Learn more

10-Day Weather Forecast

Advertisements
Track Severe Weather on mobile